Time;durP1;ratioP1;P1;durP2;ratioP2;P2;SDS_P1;SDS_P2;PMS_P1;PMS_P2;Temp;Humidity;BMP_temperature;BMP_pressure;BME280_temperature;BME280_humidity;BME280_pressure;Samples;Min_cycle;Max_cycle;Signal;HPM_P1;HPM_P2
2022/03/20 00:01:03;;;;;;;10.83;6.47;;;2.50;52.50;;;;;;5025120;28;20489;-73
2022/03/20 00:03:31;;;;;;;9.80;6.70;;;2.50;52.60;;;;;;5013231;28;20483;-69
2022/03/20 00:05:59;;;;;;;11.03;6.50;;;2.50;52.40;;;;;;5016661;28;20480;-75
2022/03/20 00:08:28;;;;;;;10.80;7.10;;;2.50;52.20;;;;;;5024613;28;20970;-69
2022/03/20 00:10:59;;;;;;;10.40;6.70;;;2.50;52.20;;;;;;5013242;28;20944;-68
2022/03/20 00:13:27;;;;;;;18.07;6.47;;;2.50;52.30;;;;;;5020489;28;20573;-73
2022/03/20 00:15:55;;;;;;;9.50;6.23;;;2.60;52.00;;;;;;5032823;28;20470;-71
2022/03/20 00:18:25;;;;;;;8.50;6.40;;;2.40;52.40;;;;;;5032978;28;20545;-72
2022/03/20 00:20:54;;;;;;;10.30;6.87;;;2.30;53.20;;;;;;5032779;28;20555;-71
2022/03/20 00:23:22;;;;;;;11.50;6.67;;;2.60;52.60;;;;;;5033107;28;20454;-73
2022/03/20 00:25:51;;;;;;;10.53;6.00;;;2.50;52.20;;;;;;5024008;28;20806;-70
2022/03/20 00:28:20;;;;;;;9.90;7.37;;;2.40;52.80;;;;;;5013425;28;20451;-67
2022/03/20 00:30:48;;;;;;;9.33;6.53;;;2.40;52.40;;;;;;5013155;28;20493;-70
2022/03/20 00:33:15;;;;;;;9.67;6.40;;;2.40;52.30;;;;;;5012936;28;20585;-73
2022/03/20 00:35:43;;;;;;;9.27;6.33;;;2.20;53.60;;;;;;5012509;28;20479;-72
2022/03/20 00:38:10;;;;;;;9.27;6.23;;;1.90;54.30;;;;;;5012853;28;20455;-69
2022/03/20 00:40:37;;;;;;;8.40;5.80;;;2.10;53.40;;;;;;5012582;28;20458;-71
2022/03/20 00:43:06;;;;;;;11.40;6.20;;;2.10;53.10;;;;;;5013447;28;20459;-70
2022/03/20 00:45:34;;;;;;;9.70;6.07;;;2.20;53.10;;;;;;5023530;28;20471;-72
2022/03/20 00:48:01;;;;;;;11.60;5.87;;;2.30;52.60;;;;;;5012552;28;20466;-71
2022/03/20 00:50:29;;;;;;;12.93;6.20;;;2.40;52.30;;;;;;5027958;28;20451;-71
2022/03/20 00:52:56;;;;;;;10.87;6.40;;;2.40;52.50;;;;;;5032270;28;20584;-72
2022/03/20 00:55:23;;;;;;;11.00;6.80;;;2.40;52.40;;;;;;5032010;28;20467;-72
2022/03/20 00:57:51;;;;;;;10.30;5.90;;;2.40;52.70;;;;;;5030514;28;20534;-72
2022/03/20 01:00:19;;;;;;;8.77;5.80;;;2.30;53.10;;;;;;5016319;28;20493;-69
2022/03/20 01:02:47;;;;;;;11.00;6.30;;;2.30;52.80;;;;;;5011755;28;20448;-73
2022/03/20 01:05:15;;;;;;;10.37;6.07;;;2.30;53.40;;;;;;5012382;28;20483;-72
2022/03/20 01:07:42;;;;;;;9.30;6.57;;;2.30;53.30;;;;;;5012204;28;20456;-72
2022/03/20 01:10:11;;;;;;;9.83;6.50;;;2.30;53.50;;;;;;5022432;28;20451;-68
2022/03/20 01:12:39;;;;;;;11.40;6.97;;;2.20;53.90;;;;;;5020148;28;20491;-71
2022/03/20 01:15:10;;;;;;;11.07;7.53;;;2.20;54.30;;;;;;5014575;28;20575;-72
2022/03/20 01:17:38;;;;;;;15.27;7.80;;;2.10;54.60;;;;;;5013981;28;20821;-69
2022/03/20 01:20:09;;;;;;;10.57;6.40;;;2.20;54.30;;;;;;5019621;28;20949;-75
2022/03/20 01:22:37;;;;;;;10.90;7.67;;;2.20;54.10;;;;;;5031185;28;20443;-74
2022/03/20 01:25:06;;;;;;;11.33;7.70;;;2.20;54.00;;;;;;5030961;28;20540;-68
2022/03/20 01:27:33;;;;;;;13.03;7.67;;;2.20;54.10;;;;;;5029557;28;20470;-72
2022/03/20 01:30:01;;;;;;;9.73;7.10;;;2.20;53.90;;;;;;5011245;28;20463;-68
2022/03/20 01:32:28;;;;;;;9.33;6.33;;;2.20;53.90;;;;;;5011742;28;20484;-74
2022/03/20 01:34:57;;;;;;;10.87;6.90;;;2.10;54.10;;;;;;5010895;28;20475;-71
2022/03/20 01:37:24;;;;;;;11.27;7.07;;;2.00;54.30;;;;;;5011877;28;20474;-70
2022/03/20 01:39:52;;;;;;;13.00;8.40;;;2.00;54.20;;;;;;5026107;28;20881;-71
2022/03/20 01:42:20;;;;;;;15.50;6.60;;;2.00;54.30;;;;;;5030978;28;20525;-72
2022/03/20 01:44:47;;;;;;;10.53;7.03;;;1.80;55.00;;;;;;5029297;28;20994;-67
2022/03/20 01:47:14;;;;;;;11.30;7.17;;;1.70;55.30;;;;;;5011053;28;20455;-68
2022/03/20 01:49:41;;;;;;;10.17;7.10;;;1.60;55.70;;;;;;5011432;28;20463;-67
2022/03/20 01:52:14;;;;;;;12.73;6.90;;;1.60;55.50;;;;;;5011344;28;20459;-72
2022/03/20 01:54:44;;;;;;;12.63;7.80;;;1.50;56.20;;;;;;5011300;28;20530;-72
2022/03/20 01:57:14;;;;;;;9.43;7.20;;;1.50;55.60;;;;;;5010624;28;20456;-71
2022/03/20 01:59:41;;;;;;;13.27;8.60;;;1.40;56.00;;;;;;5013070;28;20804;-69
2022/03/20 02:02:08;;;;;;;16.07;10.10;;;1.50;55.00;;;;;;5030176;28;20455;-72
2022/03/20 02:04:36;;;;;;;14.70;8.57;;;1.40;55.10;;;;;;5020948;28;20463;-69
2022/03/20 02:07:05;;;;;;;19.40;8.37;;;1.10;55.90;;;;;;5010690;28;20456;-73
2022/03/20 02:09:35;;;;;;;9.70;6.50;;;1.00;56.20;;;;;;5011117;28;20455;-69
2022/03/20 02:12:03;;;;;;;11.50;6.83;;;1.00;56.70;;;;;;5010850;28;20481;-70
2022/03/20 02:14:31;;;;;;;11.37;6.77;;;0.80;57.30;;;;;;5025207;28;21034;-71
2022/03/20 02:16:58;;;;;;;10.00;6.83;;;0.70;57.80;;;;;;5010895;28;20452;-70
2022/03/20 02:19:26;;;;;;;12.87;7.73;;;0.60;58.20;;;;;;5014713;28;20451;-70
2022/03/20 02:21:55;;;;;;;11.90;7.90;;;0.50;59.50;;;;;;5029916;28;20473;-71
2022/03/20 02:24:29;;;;;;;13.53;8.67;;;0.30;60.50;;;;;;5029434;28;20451;-72
2022/03/20 02:27:04;;;;;;;12.20;7.90;;;0.30;60.00;;;;;;5030589;28;20461;-73
2022/03/20 02:29:31;;;;;;;13.40;8.33;;;0.20;60.40;;;;;;5030543;28;20463;-74
2022/03/20 02:32:00;;;;;;;12.27;8.90;;;0.20;61.00;;;;;;5030147;28;20951;-71
2022/03/20 02:34:27;;;;;;;13.50;8.27;;;0.10;62.90;;;;;;5022235;28;20487;-73
2022/03/20 02:36:56;;;;;;;12.93;8.50;;;0.20;61.60;;;;;;5010214;28;20486;-73
2022/03/20 02:39:24;;;;;;;12.27;7.20;;;0.20;61.90;;;;;;5024057;28;20455;-72
2022/03/20 02:41:52;;;;;;;11.77;8.00;;;0.20;62.70;;;;;;5030013;28;20446;-72
2022/03/20 02:44:19;;;;;;;15.33;7.90;;;0.00;64.50;;;;;;5029536;28;20443;-68
2022/03/20 02:46:46;;;;;;;10.23;7.53;;;0.20;64.70;;;;;;5010773;28;21000;-68
2022/03/20 02:49:15;;;;;;;12.17;7.90;;;0.40;64.00;;;;;;5010139;28;20488;-73
2022/03/20 02:51:42;;;;;;;11.33;7.70;;;0.50;63.90;;;;;;5010377;28;20460;-70
2022/03/20 02:54:11;;;;;;;11.93;7.93;;;0.70;61.40;;;;;;5010095;28;20991;-70
2022/03/20 02:56:38;;;;;;;15.67;7.37;;;1.00;60.70;;;;;;5009755;28;20467;-71
2022/03/20 02:59:07;;;;;;;11.03;7.77;;;1.10;60.10;;;;;;5009976;28;21140;-72
2022/03/20 03:01:34;;;;;;;10.27;7.90;;;1.00;61.50;;;;;;5019927;28;20632;-68
2022/03/20 03:04:01;;;;;;;11.27;7.70;;;1.00;62.30;;;;;;5029483;28;20466;-72
2022/03/20 03:06:28;;;;;;;12.37;8.40;;;1.20;61.50;;;;;;5029491;28;21191;-73
2022/03/20 03:11:40;;;;;;;15.60;9.20;;;1.20;61.40;;;;;;5016518;28;21025;-70
2022/03/20 03:16:49;;;;;;;10.93;7.90;;;0.80;64.30;;;;;;5027892;28;20496;-74
2022/03/20 03:19:16;;;;;;;11.47;7.67;;;0.80;64.50;;;;;;5030120;28;20442;-72
2022/03/20 03:21:43;;;;;;;14.10;8.00;;;0.90;64.50;;;;;;5029397;28;20450;-72
2022/03/20 03:24:10;;;;;;;11.07;7.93;;;1.20;63.10;;;;;;5029374;28;20450;-69
2022/03/20 03:26:38;;;;;;;12.67;8.47;;;1.30;62.90;;;;;;5029463;28;20470;-68
2022/03/20 03:29:06;;;;;;;11.83;8.40;;;1.40;62.10;;;;;;5027851;28;20450;-70
2022/03/20 03:31:34;;;;;;;15.13;9.03;;;1.50;61.90;;;;;;5010998;28;20943;-73
2022/03/20 03:36:46;;;;;;;16.53;12.43;;;1.50;62.20;;;;;;5013698;28;20955;-72
2022/03/20 03:39:13;;;;;;;22.17;15.50;;;1.40;62.70;;;;;;5013842;28;20566;-73
2022/03/20 03:41:40;;;;;;;25.30;17.10;;;1.20;63.60;;;;;;5013685;28;20456;-73
2022/03/20 03:44:09;;;;;;;24.60;17.87;;;1.30;63.30;;;;;;5013588;28;20460;-73
2022/03/20 03:46:37;;;;;;;27.57;18.10;;;1.00;62.90;;;;;;5013341;28;20983;-71
2022/03/20 03:49:04;;;;;;;24.63;16.03;;;0.80;64.70;;;;;;5024606;28;20454;-72
2022/03/20 03:51:31;;;;;;;28.17;17.27;;;0.80;65.10;;;;;;5032850;28;20950;-72
2022/03/20 03:53:58;;;;;;;25.60;16.60;;;1.00;63.50;;;;;;5033062;28;20490;-71
2022/03/20 03:56:25;;;;;;;27.10;16.63;;;1.10;62.70;;;;;;5026701;28;20483;-72
2022/03/20 03:58:52;;;;;;;26.33;16.60;;;0.80;64.00;;;;;;5013240;28;20456;-71
2022/03/20 04:01:21;;;;;;;24.27;16.70;;;0.40;66.20;;;;;;5012519;28;21655;-71
2022/03/20 04:03:48;;;;;;;18.13;14.10;;;0.60;66.30;;;;;;5013135;28;20452;-72
2022/03/20 04:06:15;;;;;;;21.20;13.00;;;0.40;66.90;;;;;;5012698;28;20475;-70
2022/03/20 04:08:42;;;;;;;25.20;13.00;;;0.60;65.50;;;;;;5023083;28;20760;-71
2022/03/20 04:11:10;;;;;;;21.40;12.73;;;0.60;65.60;;;;;;5032161;28;20488;-72
2022/03/20 04:13:37;;;;;;;19.20;13.47;;;0.60;65.60;;;;;;5031640;28;20493;-72
2022/03/20 04:16:05;;;;;;;21.43;12.87;;;0.30;67.50;;;;;;5031609;28;20470;-72
2022/03/20 04:18:34;;;;;;;20.60;12.57;;;-0.10;70.10;;;;;;5032323;28;20465;-69
2022/03/20 04:21:01;;;;;;;18.80;12.40;;;0.30;68.60;;;;;;5033054;28;20450;-70
2022/03/20 04:23:45;;;;;;;23.30;13.80;;;0.20;69.40;;;;;;5032967;28;20460;-71
2022/03/20 04:26:14;;;;;;;16.13;11.93;;;0.00;71.20;;;;;;5032653;28;20481;-71
2022/03/20 04:28:42;;;;;;;22.03;13.87;;;0.20;70.50;;;;;;5029823;28;20463;-71
2022/03/20 04:31:09;;;;;;;19.13;13.50;;;0.40;68.90;;;;;;5021186;28;20513;-73
2022/03/20 04:33:38;;;;;;;19.47;12.27;;;0.50;69.20;;;;;;5031603;28;20513;-70
2022/03/20 04:36:08;;;;;;;18.70;12.60;;;0.50;69.10;;;;;;5032046;28;20866;-71
2022/03/20 04:38:35;;;;;;;20.83;13.83;;;0.30;69.00;;;;;;5016150;28;20462;-69
2022/03/20 04:41:02;;;;;;;21.43;14.07;;;0.30;70.30;;;;;;5012111;28;20863;-77
2022/03/20 04:43:29;;;;;;;17.77;12.60;;;0.40;69.80;;;;;;5023370;28;20971;-73
2022/03/20 04:45:56;;;;;;;18.57;13.50;;;0.60;69.80;;;;;;5012360;28;20960;-73
2022/03/20 04:59:23;;;;;;;20.20;12.77;;;0.60;70.80;;;;;;5032240;28;21228;-69
2022/03/20 05:01:50;;;;;;;17.07;13.07;;;0.40;72.20;;;;;;5016102;28;20503;-70
2022/03/20 05:04:18;;;;;;;19.80;13.20;;;0.50;72.70;;;;;;5011658;28;20514;-71
2022/03/20 05:06:46;;;;;;;19.20;13.27;;;0.80;70.70;;;;;;5018316;28;20509;-69
2022/03/20 05:14:39;;;;;;;20.67;13.50;;;1.40;67.60;;;;;;5030489;28;20536;-70
2022/03/20 05:17:07;;;;;;;19.67;12.20;;;1.50;66.40;;;;;;5031459;28;20451;-74
2022/03/20 05:19:35;;;;;;;21.60;13.00;;;1.60;66.90;;;;;;5030522;28;20455;-69
2022/03/20 05:22:05;;;;;;;17.20;11.83;;;1.70;66.60;;;;;;5022625;28;20491;-75
2022/03/20 05:24:33;;;;;;;16.70;12.53;;;1.70;66.40;;;;;;5023368;28;20443;-70
2022/03/20 05:27:00;;;;;;;19.63;12.20;;;1.80;66.20;;;;;;5031479;28;20951;-70
2022/03/20 05:29:28;;;;;;;20.73;13.43;;;1.60;67.00;;;;;;5012484;28;20452;-76
2022/03/20 05:31:56;;;;;;;21.53;13.77;;;1.40;67.90;;;;;;5011630;28;20459;-74
2022/03/20 05:34:23;;;;;;;17.57;12.60;;;1.50;67.80;;;;;;5027813;28;20497;-76
2022/03/20 05:36:51;;;;;;;23.00;13.57;;;1.70;67.80;;;;;;5031512;28;20852;-75
2022/03/20 05:39:20;;;;;;;19.17;12.77;;;2.00;66.20;;;;;;5031606;28;20451;-72
2022/03/20 05:41:47;;;;;;;19.63;14.33;;;2.00;66.90;;;;;;5031577;28;20486;-72
2022/03/20 05:44:16;;;;;;;21.10;13.47;;;2.00;67.30;;;;;;5030984;28;20507;-71
2022/03/20 05:46:44;;;;;;;26.50;14.90;;;2.00;67.00;;;;;;5031219;28;20459;-72
2022/03/20 05:49:11;;;;;;;19.80;12.87;;;2.20;65.50;;;;;;5030893;28;20490;-74
2022/03/20 05:51:38;;;;;;;19.53;13.30;;;2.40;64.70;;;;;;5018783;28;20455;-74
2022/03/20 05:54:07;;;;;;;20.23;13.87;;;2.30;64.40;;;;;;5019005;28;20526;-75
2022/03/20 05:59:21;;;;;;;18.43;12.53;;;2.10;64.80;;;;;;5021968;28;20459;-72
2022/03/20 06:01:51;;;;;;;16.57;12.27;;;2.40;64.10;;;;;;5024253;28;20482;-72
2022/03/20 06:04:18;;;;;;;17.67;11.40;;;2.50;63.60;;;;;;5031024;28;21290;-73
2022/03/20 06:06:45;;;;;;;19.40;12.73;;;2.70;63.10;;;;;;5030893;28;20455;-72
2022/03/20 06:09:13;;;;;;;19.47;13.57;;;2.80;61.90;;;;;;5030743;28;20454;-71
2022/03/20 06:11:41;;;;;;;16.03;12.50;;;2.90;62.00;;;;;;5030536;28;20451;-73
2022/03/20 06:14:08;;;;;;;21.87;14.37;;;2.80;62.50;;;;;;5030522;28;20495;-72
2022/03/20 06:16:36;;;;;;;25.53;15.73;;;2.70;62.70;;;;;;5030544;28;20455;-72
2022/03/20 06:19:05;;;;;;;19.20;12.73;;;2.80;62.40;;;;;;5030601;28;20458;-80
2022/03/20 06:21:32;;;;;;;21.83;14.50;;;2.50;61.80;;;;;;5030084;28;21029;-73
2022/03/20 06:23:59;;;;;;;19.70;14.03;;;2.30;63.10;;;;;;5030386;28;20470;-74
2022/03/20 06:26:26;;;;;;;27.07;13.70;;;2.50;63.10;;;;;;5030711;28;20458;-84
2022/03/20 06:28:55;;;;;;;16.10;10.77;;;2.70;63.20;;;;;;5030635;28;20455;-80
2022/03/20 06:31:22;;;;;;;18.93;11.33;;;2.70;61.40;;;;;;5030678;28;20443;-78
2022/03/20 06:33:49;;;;;;;18.13;10.10;;;2.70;60.80;;;;;;5030482;28;20475;-81
2022/03/20 06:36:16;;;;;;;18.17;11.10;;;3.00;60.80;;;;;;5030310;28;20466;-75
2022/03/20 06:38:44;;;;;;;14.10;9.50;;;3.40;58.80;;;;;;5030381;28;20455;-72
2022/03/20 06:41:11;;;;;;;20.20;9.70;;;3.60;58.60;;;;;;5030190;28;20450;-79
2022/03/20 06:43:38;;;;;;;14.47;10.33;;;3.90;57.90;;;;;;5030128;28;21048;-73
2022/03/20 06:46:08;;;;;;;13.20;9.00;;;4.10;57.70;;;;;;5030069;28;20450;-75
2022/03/20 06:48:35;;;;;;;19.57;10.23;;;4.30;57.00;;;;;;5030203;28;20450;-73
2022/03/20 06:51:04;;;;;;;14.80;9.10;;;4.30;56.20;;;;;;5029744;28;20463;-73
2022/03/20 06:53:32;;;;;;;13.37;8.50;;;4.40;55.90;;;;;;5029966;28;20478;-73
2022/03/20 06:56:01;;;;;;;11.50;8.70;;;4.40;56.30;;;;;;5029736;28;20844;-72
2022/03/20 06:58:29;;;;;;;14.03;8.90;;;4.50;55.20;;;;;;5029968;28;20966;-72
2022/03/20 07:00:58;;;;;;;10.97;7.30;;;4.70;53.80;;;;;;5029548;28;20529;-70
2022/03/20 07:03:26;;;;;;;12.20;7.53;;;4.90;52.10;;;;;;5029506;28;20553;-70
2022/03/20 07:05:54;;;;;;;12.07;7.63;;;5.00;53.00;;;;;;5029428;28;20451;-72
2022/03/20 07:08:22;;;;;;;12.90;9.00;;;5.10;51.80;;;;;;5029933;28;20455;-72
2022/03/20 07:10:49;;;;;;;15.67;10.03;;;5.20;50.10;;;;;;5030094;28;20939;-78
2022/03/20 07:16:00;;;;;;;12.23;8.30;;;5.50;50.60;;;;;;5029384;28;20568;-75
2022/03/20 07:18:29;;;;;;;12.77;9.27;;;5.60;50.60;;;;;;5029737;28;20961;-74
2022/03/20 07:20:56;;;;;;;13.33;8.73;;;5.90;49.60;;;;;;5029446;28;20463;-71
2022/03/20 07:23:23;;;;;;;12.80;8.57;;;5.90;49.00;;;;;;5029739;28;20478;-72
2022/03/20 07:31:19;;;;;;;9.93;7.03;;;5.80;48.40;;;;;;5029723;28;20494;-68
2022/03/20 07:33:49;;;;;;;13.90;7.23;;;6.00;47.10;;;;;;5029109;28;20479;-74
2022/03/20 07:36:19;;;;;;;17.30;8.27;;;5.90;46.80;;;;;;5029513;28;20486;-73
2022/03/20 07:38:46;;;;;;;9.93;7.10;;;5.80;48.60;;;;;;5029483;28;20549;-74
2022/03/20 07:41:13;;;;;;;9.87;7.33;;;5.90;47.80;;;;;;5029394;28;20683;-74
2022/03/20 07:43:41;;;;;;;13.90;8.80;;;5.90;46.90;;;;;;5029548;28;20552;-74
2022/03/20 07:46:08;;;;;;;12.00;7.87;;;5.50;47.30;;;;;;5029590;28;20447;-74
2022/03/20 07:48:37;;;;;;;9.87;7.20;;;5.50;48.70;;;;;;5029596;28;20966;-75
2022/03/20 07:51:05;;;;;;;12.17;7.63;;;5.80;48.00;;;;;;5029635;28;20459;-76
2022/03/20 07:53:32;;;;;;;10.10;7.47;;;6.00;48.20;;;;;;5029314;28;20516;-76
2022/03/20 07:55:59;;;;;;;11.73;7.53;;;6.20;47.10;;;;;;5029070;28;20494;-75
2022/03/20 07:58:27;;;;;;;12.57;7.47;;;6.30;47.40;;;;;;5029493;28;20780;-74
2022/03/20 08:00:54;;;;;;;8.53;6.23;;;6.40;46.80;;;;;;5028657;28;20502;-75
2022/03/20 08:03:21;;;;;;;13.27;8.00;;;6.30;47.10;;;;;;5029375;28;20482;-75
2022/03/20 08:05:48;;;;;;;10.17;6.90;;;6.40;46.50;;;;;;5029498;28;20761;-74
2022/03/20 08:08:16;;;;;;;12.30;6.70;;;6.50;46.80;;;;;;5029031;28;20458;-74
2022/03/20 08:10:44;;;;;;;12.90;7.10;;;6.80;47.30;;;;;;5029080;28;20469;-74
2022/03/20 08:13:12;;;;;;;10.27;6.50;;;7.10;45.90;;;;;;5029154;28;20878;-75
2022/03/20 08:15:40;;;;;;;11.80;7.80;;;7.20;46.20;;;;;;5029296;28;20487;-76
2022/03/20 08:18:08;;;;;;;9.20;6.47;;;7.40;46.60;;;;;;5031711;28;20482;-74
2022/03/20 08:20:36;;;;;;;11.53;7.33;;;7.50;45.40;;;;;;5032575;28;20509;-74
2022/03/20 08:23:03;;;;;;;9.97;6.70;;;7.50;44.30;;;;;;5032476;28;20486;-74
2022/03/20 08:25:32;;;;;;;10.57;7.17;;;7.40;44.20;;;;;;5032820;28;20536;-75
2022/03/20 08:28:00;;;;;;;10.93;7.83;;;7.30;44.50;;;;;;5032664;28;20818;-75
2022/03/20 08:30:27;;;;;;;12.10;8.00;;;7.50;44.50;;;;;;5032886;28;20470;-74
2022/03/20 08:32:55;;;;;;;11.87;7.53;;;7.60;44.70;;;;;;5032537;28;20478;-75
2022/03/20 08:35:22;;;;;;;13.80;8.90;;;8.00;44.50;;;;;;5032502;28;20505;-74
2022/03/20 08:37:52;;;;;;;10.33;7.20;;;8.10;44.50;;;;;;5032307;28;20462;-75
2022/03/20 08:40:21;;;;;;;11.30;8.00;;;8.30;43.80;;;;;;5032721;28;20447;-75
2022/03/20 08:42:52;;;;;;;12.53;7.40;;;8.40;43.70;;;;;;5032493;28;20505;-75
2022/03/20 08:45:20;;;;;;;9.93;7.07;;;8.20;43.10;;;;;;5032398;28;20457;-75
2022/03/20 08:47:47;;;;;;;9.60;7.30;;;7.80;43.20;;;;;;5031935;28;20451;-75
2022/03/20 08:50:15;;;;;;;11.27;7.00;;;8.00;43.70;;;;;;5032084;28;20840;-75
2022/03/20 08:52:43;;;;;;;9.47;6.30;;;8.40;42.60;;;;;;5032228;28;20939;-74
2022/03/20 08:55:11;;;;;;;9.20;6.27;;;8.40;42.50;;;;;;5032183;28;20486;-75
2022/03/20 08:57:42;;;;;;;9.40;7.17;;;8.40;42.50;;;;;;5032249;28;20955;-74
2022/03/20 09:00:15;;;;;;;11.10;7.10;;;8.60;42.80;;;;;;5031721;28;20995;-75
2022/03/20 09:02:43;;;;;;;7.80;5.67;;;8.80;42.20;;;;;;5032105;28;20475;-75
2022/03/20 09:05:12;;;;;;;8.83;4.90;;;9.20;40.40;;;;;;5031918;28;20451;-74
2022/03/20 09:07:40;;;;;;;7.50;4.80;;;9.30;39.60;;;;;;5032247;28;21017;-74
2022/03/20 09:10:08;;;;;;;7.70;5.37;;;9.50;38.10;;;;;;5031964;28;20479;-73
2022/03/20 09:12:35;;;;;;;7.63;4.80;;;9.00;36.80;;;;;;5031945;28;20458;-73
2022/03/20 09:15:03;;;;;;;8.23;5.57;;;8.70;38.70;;;;;;5031683;28;20494;-74
2022/03/20 09:20:18;;;;;;;7.67;5.33;;;9.30;40.30;;;;;;5032001;28;20438;-74
2022/03/20 09:22:45;;;;;;;9.87;4.83;;;9.50;38.40;;;;;;5031935;28;20832;-73
2022/03/20 09:25:13;;;;;;;6.37;4.40;;;9.80;37.70;;;;;;5031554;28;20463;-74
2022/03/20 09:27:40;;;;;;;5.87;4.13;;;9.90;37.20;;;;;;5031282;28;20934;-74
2022/03/20 09:30:09;;;;;;;6.80;4.33;;;10.00;35.60;;;;;;5031540;28;20875;-74
2022/03/20 09:32:37;;;;;;;6.23;4.13;;;9.90;35.90;;;;;;5031471;28;21025;-73
2022/03/20 09:35:05;;;;;;;8.00;4.50;;;9.90;35.30;;;;;;5030757;28;20494;-74
2022/03/20 09:37:32;;;;;;;7.23;4.43;;;10.20;35.30;;;;;;5031637;28;20463;-75
2022/03/20 09:39:59;;;;;;;7.87;4.70;;;10.40;35.50;;;;;;5031577;28;20466;-74
2022/03/20 09:42:26;;;;;;;7.63;4.70;;;10.60;35.50;;;;;;5031529;28;20465;-74
2022/03/20 09:44:54;;;;;;;8.23;5.20;;;10.60;34.40;;;;;;5031364;28;20466;-75
2022/03/20 09:47:23;;;;;;;7.93;4.77;;;10.90;34.20;;;;;;5031227;28;21019;-73
2022/03/20 09:49:55;;;;;;;8.80;5.37;;;11.00;33.70;;;;;;5031527;28;20465;-73
2022/03/20 09:52:23;;;;;;;7.70;4.37;;;11.10;34.30;;;;;;5030837;28;20931;-72
2022/03/20 09:54:50;;;;;;;7.07;4.53;;;11.30;33.80;;;;;;5030613;28;20465;-72
2022/03/20 09:57:17;;;;;;;6.17;4.60;;;11.20;33.20;;;;;;5029893;28;20841;-72
2022/03/20 09:59:44;;;;;;;9.20;5.20;;;11.30;33.40;;;;;;5015966;28;20982;-78
2022/03/20 10:02:12;;;;;;;7.00;5.03;;;11.50;33.50;;;;;;5011119;28;20459;-72
2022/03/20 10:04:58;;;;;;;7.53;5.47;;;11.50;32.90;;;;;;5009635;28;20794;-72
2022/03/20 10:07:27;;;;;;;6.20;4.47;;;11.80;31.50;;;;;;5009394;28;20470;-76
2022/03/20 10:10:13;;;;;;;8.03;5.10;;;11.70;31.20;;;;;;5009469;28;20886;-75
2022/03/20 10:12:43;;;;;;;8.10;4.80;;;12.00;31.60;;;;;;5010541;28;20471;-72
2022/03/20 10:15:11;;;;;;;8.20;5.90;;;12.10;31.80;;;;;;5010727;28;20480;-73
2022/03/20 10:17:39;;;;;;;9.43;5.57;;;12.20;32.70;;;;;;5010772;28;20459;-73
2022/03/20 10:20:16;;;;;;;7.97;5.30;;;12.20;32.50;;;;;;5010877;28;20918;-72
2022/03/20 10:22:44;;;;;;;6.67;5.10;;;12.30;31.50;;;;;;5010823;28;20459;-72
2022/03/20 10:25:12;;;;;;;8.80;5.20;;;12.40;31.30;;;;;;5010724;28;20451;-73
2022/03/20 10:27:41;;;;;;;10.00;4.93;;;12.20;31.00;;;;;;5010390;28;20463;-72
2022/03/20 10:30:11;;;;;;;7.97;5.20;;;11.90;31.00;;;;;;5010458;28;20979;-72
2022/03/20 10:32:49;;;;;;;8.57;5.00;;;12.00;31.60;;;;;;5010618;28;20498;-74
2022/03/20 10:35:18;;;;;;;10.10;5.03;;;12.30;30.80;;;;;;5010672;28;20593;-73
2022/03/20 10:37:51;;;;;;;9.27;4.60;;;12.30;30.30;;;;;;5010594;28;20463;-73
2022/03/20 10:40:20;;;;;;;7.40;5.13;;;12.00;29.60;;;;;;5009752;28;20455;-72
2022/03/20 10:43:09;;;;;;;7.03;4.80;;;12.10;30.50;;;;;;5010521;28;20466;-74
2022/03/20 10:45:54;;;;;;;8.03;4.47;;;12.20;31.30;;;;;;5010331;28;20460;-72
2022/03/20 10:48:34;;;;;;;6.90;4.37;;;12.20;30.70;;;;;;5010054;28;20448;-73
2022/03/20 10:51:03;;;;;;;8.13;5.27;;;12.50;31.30;;;;;;5010221;28;20476;-73
2022/03/20 10:53:30;;;;;;;8.03;5.00;;;12.80;30.30;;;;;;5010261;28;20479;-72
2022/03/20 10:56:04;;;;;;;9.50;6.70;;;12.70;29.20;;;;;;5010038;28;20491;-73
2022/03/20 10:58:31;;;;;;;9.50;5.83;;;12.90;29.60;;;;;;5010016;28;20474;-75
2022/03/20 11:00:58;;;;;;;12.90;9.53;;;13.10;29.20;;;;;;5009653;28;20484;-75
2022/03/20 11:03:27;;;;;;;8.50;5.93;;;13.20;29.10;;;;;;5009995;28;20459;-72
2022/03/20 11:05:54;;;;;;;8.27;4.87;;;13.30;29.40;;;;;;5010139;28;20507;-74
2022/03/20 11:08:25;;;;;;;8.13;5.50;;;13.20;29.70;;;;;;5010030;28;20463;-72
2022/03/20 11:10:54;;;;;;;7.63;4.77;;;13.40;30.10;;;;;;5009544;28;20509;-74
2022/03/20 11:13:23;;;;;;;7.90;4.90;;;13.30;30.90;;;;;;5009950;28;20467;-73
2022/03/20 11:15:53;;;;;;;11.03;5.27;;;13.70;30.20;;;;;;5009450;28;21036;-72
2022/03/20 11:18:22;;;;;;;11.63;5.27;;;13.70;30.10;;;;;;5009878;28;20491;-72
2022/03/20 11:20:52;;;;;;;8.77;6.00;;;13.90;30.70;;;;;;5009918;28;20451;-74
2022/03/20 11:23:24;;;;;;;9.70;5.50;;;14.10;29.80;;;;;;5009961;28;20447;-72
2022/03/20 11:25:55;;;;;;;7.90;5.23;;;14.20;29.30;;;;;;5009351;28;20508;-74
2022/03/20 11:28:24;;;;;;;9.93;5.47;;;14.20;29.80;;;;;;5009607;28;20463;-73
2022/03/20 11:30:53;;;;;;;7.03;5.17;;;14.20;29.50;;;;;;5009878;28;20452;-72
2022/03/20 11:33:22;;;;;;;9.17;7.00;;;14.20;29.80;;;;;;5009628;28;20459;-73
2022/03/20 11:35:50;;;;;;;6.63;4.90;;;14.50;30.00;;;;;;5009586;28;21058;-73
2022/03/20 11:38:19;;;;;;;7.10;5.00;;;14.60;29.40;;;;;;5009744;28;20517;-71
2022/03/20 11:41:07;;;;;;;9.37;5.87;;;14.70;28.70;;;;;;5009724;28;20463;-71
2022/03/20 11:43:35;;;;;;;7.90;5.53;;;14.40;28.80;;;;;;5009765;28;20458;-74
2022/03/20 11:46:27;;;;;;;8.60;5.20;;;14.40;29.50;;;;;;5009622;28;20566;-74
2022/03/20 11:49:23;;;;;;;7.87;5.60;;;14.70;28.90;;;;;;5009519;28;20460;-72
2022/03/20 11:51:55;;;;;;;12.03;5.20;;;14.90;29.10;;;;;;5009791;28;20455;-72
2022/03/20 11:54:30;;;;;;;8.40;5.00;;;14.80;29.30;;;;;;5013682;28;20474;-74
2022/03/20 11:57:00;;;;;;;5.97;4.03;;;14.90;29.60;;;;;;5012994;28;21040;-73
2022/03/20 11:59:48;;;;;;;7.13;4.80;;;14.90;29.10;;;;;;5013230;28;20463;-73
2022/03/20 12:02:17;;;;;;;6.70;4.70;;;15.00;29.40;;;;;;5008862;28;20486;-71
2022/03/20 12:04:56;;;;;;;8.27;6.10;;;15.10;28.90;;;;;;5013483;28;20455;-72
2022/03/20 12:07:31;;;;;;;6.60;5.00;;;15.10;27.90;;;;;;5013331;28;20800;-75
2022/03/20 12:10:04;;;;;;;8.67;4.47;;;15.00;28.80;;;;;;5013020;28;20458;-72
2022/03/20 12:12:48;;;;;;;6.70;4.53;;;15.00;29.40;;;;;;5013068;28;20537;-71
2022/03/20 12:15:20;;;;;;;6.80;4.83;;;15.10;29.60;;;;;;5013134;28;20463;-72
2022/03/20 12:18:01;;;;;;;6.60;4.60;;;15.10;29.70;;;;;;5013146;28;20588;-69
2022/03/20 12:21:03;;;;;;;8.63;5.13;;;15.20;29.40;;;;;;5012791;28;20491;-70
2022/03/20 12:23:39;;;;;;;7.43;5.03;;;15.40;28.30;;;;;;5012848;28;20635;-71
2022/03/20 12:26:30;;;;;;;7.50;4.80;;;15.40;27.50;;;;;;5012970;28;20475;-72
2022/03/20 12:29:31;;;;;;;6.40;4.33;;;15.30;28.50;;;;;;5012930;28;20463;-72
2022/03/20 12:32:00;;;;;;;14.60;4.70;;;15.20;29.40;;;;;;5012778;28;20451;-72
2022/03/20 12:34:28;;;;;;;8.40;4.10;;;15.50;28.90;;;;;;5012919;28;20444;-70
2022/03/20 12:36:55;;;;;;;7.60;5.43;;;15.50;28.50;;;;;;5012777;28;20840;-71
2022/03/20 12:39:48;;;;;;;6.57;3.90;;;15.50;27.90;;;;;;5012867;28;20459;-72
2022/03/20 12:42:19;;;;;;;7.90;5.23;;;15.20;28.20;;;;;;5012872;28;20459;-69
2022/03/20 12:44:49;;;;;;;8.63;5.47;;;15.40;29.30;;;;;;5012778;28;20447;-74
2022/03/20 12:47:20;;;;;;;11.50;6.90;;;15.70;28.40;;;;;;5012386;28;20897;-69
2022/03/20 12:49:48;;;;;;;7.17;5.50;;;15.90;28.40;;;;;;5012531;28;20452;-69
2022/03/20 12:52:17;;;;;;;6.83;4.73;;;15.80;28.20;;;;;;5012358;28;20915;-77
2022/03/20 12:54:54;;;;;;;8.00;5.30;;;16.00;28.50;;;;;;5012344;28;20452;-77
2022/03/20 12:57:36;;;;;;;8.13;5.17;;;16.10;28.10;;;;;;5012281;28;20581;-76
2022/03/20 13:00:13;;;;;;;6.40;4.63;;;16.10;28.20;;;;;;5011619;28;20491;-78
2022/03/20 13:03:03;;;;;;;8.03;4.70;;;16.10;27.80;;;;;;5011777;28;20542;-76
2022/03/20 13:05:32;;;;;;;7.63;5.50;;;16.30;27.80;;;;;;5012062;28;20478;-77
2022/03/20 13:07:59;;;;;;;8.83;5.50;;;16.30;28.20;;;;;;5012679;28;21095;-77
2022/03/20 13:10:36;;;;;;;7.20;4.73;;;16.40;27.80;;;;;;5011905;28;20476;-78
2022/03/20 13:13:05;;;;;;;7.60;4.73;;;16.50;27.20;;;;;;5012304;28;20839;-75
2022/03/20 13:15:37;;;;;;;6.80;4.70;;;16.60;27.70;;;;;;5012083;28;20464;-76
2022/03/20 13:18:06;;;;;;;7.90;5.40;;;16.30;27.50;;;;;;5012410;28;20980;-75
2022/03/20 13:20:35;;;;;;;8.13;4.57;;;16.40;27.30;;;;;;5012883;28;20531;-76
2022/03/20 13:23:07;;;;;;;6.43;4.63;;;16.60;27.50;;;;;;5012477;28;20472;-74
2022/03/20 13:25:39;;;;;;;6.97;5.10;;;16.70;27.60;;;;;;5011568;28;20483;-73
2022/03/20 13:28:07;;;;;;;7.03;5.23;;;16.70;28.10;;;;;;5012046;28;20474;-71
2022/03/20 13:30:38;;;;;;;8.53;4.80;;;16.60;27.50;;;;;;5011834;28;20451;-71
2022/03/20 13:33:06;;;;;;;7.53;5.10;;;16.70;27.30;;;;;;5011587;28;20455;-74
2022/03/20 13:35:34;;;;;;;9.30;4.40;;;17.00;26.80;;;;;;5011265;28;20476;-75